Time;durP1;ratioP1;P1;durP2;ratioP2;P2;SDS_P1;SDS_P2;PMS_P1;PMS_P2;Temp;Humidity;BMP_temperature;BMP_pressure;BME280_temperature;BME280_humidity;BME280_pressure;Samples;Min_cycle;Max_cycle;Signal;HPM_P1;HPM_P2
2021/05/05 00:01:51;;;;;;;7.05;6.43;;;;;;;;;;5041042;28;20217;-65
2021/05/05 00:04:18;;;;;;;5.88;5.38;;;;;;;;;;5037875;28;20301;-64
2021/05/05 00:06:45;;;;;;;6.25;5.85;;;;;;;;;;5040465;28;20202;-64
2021/05/05 00:09:12;;;;;;;5.57;5.15;;;;;;;;;;5037010;28;20222;-63
2021/05/05 00:11:40;;;;;;;5.50;5.10;;;;;;;;;;5035721;28;20206;-64
2021/05/05 00:14:07;;;;;;;6.15;5.65;;;;;;;;;;5035341;28;20222;-64
2021/05/05 00:16:34;;;;;;;5.72;5.32;;;;;;;;;;5035396;28;20202;-63
2021/05/05 00:19:01;;;;;;;8.13;5.10;;;;;;;;;;5034178;28;20658;-64
2021/05/05 00:21:27;;;;;;;5.40;5.00;;;;;;;;;;5037018;28;20554;-63
2021/05/05 00:23:54;;;;;;;5.57;4.53;;;;;;;;;;5039507;28;20600;-63
2021/05/05 00:26:22;;;;;;;5.20;4.70;;;;;;;;;;5041009;28;20263;-63
2021/05/05 00:28:49;;;;;;;5.93;5.43;;;;;;;;;;5040880;28;20709;-64
2021/05/05 00:31:16;;;;;;;5.90;5.05;;;;;;;;;;5040685;28;20237;-64
2021/05/05 00:33:43;;;;;;;4.93;4.43;;;;;;;;;;5041529;28;20230;-64
2021/05/05 00:36:09;;;;;;;5.05;4.65;;;;;;;;;;5041085;28;20208;-63
2021/05/05 00:38:36;;;;;;;5.20;4.70;;;;;;;;;;5041391;28;20203;-63
2021/05/05 00:41:06;;;;;;;6.88;4.95;;;;;;;;;;5040268;28;20212;-64
2021/05/05 00:43:34;;;;;;;5.03;4.63;;;;;;;;;;5040104;28;20266;-64
2021/05/05 00:46:00;;;;;;;5.97;5.57;;;;;;;;;;5040620;28;20206;-63
2021/05/05 00:48:27;;;;;;;5.63;4.63;;;;;;;;;;5041311;28;20224;-64
2021/05/05 00:50:54;;;;;;;5.45;4.95;;;;;;;;;;5040262;28;20202;-64
2021/05/05 00:53:21;;;;;;;5.90;5.43;;;;;;;;;;5040856;28;20226;-64
2021/05/05 00:55:48;;;;;;;5.22;4.75;;;;;;;;;;5039907;28;20227;-64
2021/05/05 00:58:14;;;;;;;4.53;4.22;;;;;;;;;;5040872;28;20198;-65
2021/05/05 01:00:43;;;;;;;4.63;4.20;;;;;;;;;;5038586;28;20227;-64
2021/05/05 01:03:09;;;;;;;4.85;4.43;;;;;;;;;;5038236;28;20230;-63
2021/05/05 01:05:36;;;;;;;5.60;5.10;;;;;;;;;;5039197;28;20245;-64
2021/05/05 01:08:04;;;;;;;5.70;5.10;;;;;;;;;;5040011;28;20276;-64
2021/05/05 01:10:31;;;;;;;5.60;5.20;;;;;;;;;;5038623;28;20198;-65
2021/05/05 01:12:57;;;;;;;5.63;5.13;;;;;;;;;;5038064;28;20219;-64
2021/05/05 01:15:24;;;;;;;5.13;4.63;;;;;;;;;;5037516;28;20202;-65
2021/05/05 01:17:52;;;;;;;5.13;4.72;;;;;;;;;;5037011;28;20204;-64
2021/05/05 01:20:19;;;;;;;4.85;4.43;;;;;;;;;;5037225;28;20263;-64
2021/05/05 01:22:46;;;;;;;3.65;3.45;;;;;;;;;;5036772;28;20226;-64
2021/05/05 01:25:14;;;;;;;4.40;4.00;;;;;;;;;;5036994;28;20206;-64
2021/05/05 01:27:42;;;;;;;5.22;4.30;;;;;;;;;;5036629;28;20689;-63
2021/05/05 01:30:09;;;;;;;5.07;4.70;;;;;;;;;;5037014;28;20202;-65
2021/05/05 01:32:36;;;;;;;4.60;4.20;;;;;;;;;;5037045;28;20222;-63
2021/05/05 01:35:04;;;;;;;5.63;4.18;;;;;;;;;;5035923;28;20286;-64
2021/05/05 01:37:31;;;;;;;5.47;4.30;;;;;;;;;;5036519;28;20599;-64
2021/05/05 01:39:58;;;;;;;4.32;3.90;;;;;;;;;;5037015;28;20668;-63
2021/05/05 01:42:25;;;;;;;5.40;3.92;;;;;;;;;;5060119;22;20230;-56
2021/05/05 01:44:52;;;;;;;4.68;4.35;;;;;;;;;;5016361;28;20191;-56
2021/05/05 01:47:19;;;;;;;4.25;3.95;;;;;;;;;;5016028;28;20211;-55
2021/05/05 01:49:47;;;;;;;4.93;4.43;;;;;;;;;;5016401;28;20297;-56
2021/05/05 01:52:14;;;;;;;4.35;3.95;;;;;;;;;;5015848;28;20212;-56
2021/05/05 01:54:41;;;;;;;4.28;3.95;;;;;;;;;;4996553;28;20204;-56
2021/05/05 01:57:35;;;;;;;4.18;3.88;;;;;;;;;;4996471;28;20207;-56
2021/05/05 02:00:05;;;;;;;4.53;4.13;;;;;;;;;;4996195;28;20226;-56
2021/05/05 02:02:32;;;;;;;4.38;3.97;;;;;;;;;;4996341;28;20561;-56
2021/05/05 02:04:59;;;;;;;4.55;4.25;;;;;;;;;;4996462;28;20207;-56
2021/05/05 02:07:26;;;;;;;5.20;4.70;;;;;;;;;;4996000;28;20202;-56
2021/05/05 02:09:53;;;;;;;7.13;4.28;;;;;;;;;;4996041;28;20223;-56
2021/05/05 02:12:20;;;;;;;5.40;4.22;;;;;;;;;;4996040;28;20671;-56
2021/05/05 02:14:47;;;;;;;4.30;3.95;;;;;;;;;;4995959;28;20576;-56
2021/05/05 02:17:14;;;;;;;5.63;5.07;;;;;;;;;;4996095;28;20672;-56
2021/05/05 02:19:41;;;;;;;4.63;3.92;;;;;;;;;;4996078;28;20201;-56
2021/05/05 02:22:08;;;;;;;4.60;4.20;;;;;;;;;;4996289;28;20208;-57
2021/05/05 02:24:35;;;;;;;5.05;4.55;;;;;;;;;;4996626;28;20227;-56
2021/05/05 02:27:02;;;;;;;5.50;5.00;;;;;;;;;;4996316;28;20230;-56
2021/05/05 02:29:28;;;;;;;7.00;6.00;;;;;;;;;;4996411;28;20253;-56
2021/05/05 02:31:56;;;;;;;5.97;5.47;;;;;;;;;;4996063;28;20204;-59
2021/05/05 02:34:23;;;;;;;8.55;6.53;;;;;;;;;;4995473;28;20231;-56
2021/05/05 02:36:51;;;;;;;6.22;5.82;;;;;;;;;;4995969;28;20201;-56
2021/05/05 02:39:18;;;;;;;7.18;6.47;;;;;;;;;;4995685;28;20249;-56
2021/05/05 02:41:45;;;;;;;7.80;7.10;;;;;;;;;;4995761;28;20203;-56
2021/05/05 02:44:12;;;;;;;7.88;7.18;;;;;;;;;;4995213;28;20238;-56
2021/05/05 02:46:39;;;;;;;7.55;6.88;;;;;;;;;;4994342;28;20266;-56
2021/05/05 02:49:08;;;;;;;7.47;6.80;;;;;;;;;;4995642;28;20216;-56
2021/05/05 02:51:35;;;;;;;7.28;6.65;;;;;;;;;;4995350;28;20698;-56
2021/05/05 02:54:01;;;;;;;7.68;6.97;;;;;;;;;;4995522;28;20275;-57
2021/05/05 02:56:28;;;;;;;9.07;8.27;;;;;;;;;;4995290;28;20624;-56
2021/05/05 02:58:55;;;;;;;10.40;8.25;;;;;;;;;;4995252;28;20204;-57
2021/05/05 03:01:22;;;;;;;9.73;7.18;;;;;;;;;;4994983;28;20691;-56
2021/05/05 03:03:48;;;;;;;7.22;6.60;;;;;;;;;;4995244;28;20224;-56
2021/05/05 03:06:16;;;;;;;7.13;6.45;;;;;;;;;;4995262;28;20278;-56
2021/05/05 03:08:43;;;;;;;7.32;6.63;;;;;;;;;;4994987;28;20216;-56
2021/05/05 03:11:09;;;;;;;7.53;6.78;;;;;;;;;;4995062;28;20207;-56
2021/05/05 03:13:36;;;;;;;8.05;7.25;;;;;;;;;;4995240;28;20223;-56
2021/05/05 03:16:04;;;;;;;7.82;7.13;;;;;;;;;;4994722;28;20239;-56
2021/05/05 03:18:31;;;;;;;5.60;5.05;;;;;;;;;;4995012;28;20200;-56
2021/05/05 03:20:58;;;;;;;6.20;5.70;;;;;;;;;;4994679;28;20580;-57
2021/05/05 03:23:26;;;;;;;6.65;6.05;;;;;;;;;;4994697;28;20250;-56
2021/05/05 03:25:53;;;;;;;9.77;5.97;;;;;;;;;;4994535;28;20211;-56
2021/05/05 03:28:20;;;;;;;7.55;6.05;;;;;;;;;;4994924;28;20270;-56
2021/05/05 03:30:46;;;;;;;6.95;5.90;;;;;;;;;;4994670;28;20671;-56
2021/05/05 03:33:13;;;;;;;5.00;4.60;;;;;;;;;;4994475;28;20258;-57
2021/05/05 03:35:40;;;;;;;5.05;4.65;;;;;;;;;;4995135;28;20204;-56
2021/05/05 03:38:07;;;;;;;5.57;5.00;;;;;;;;;;4995340;28;20204;-56
2021/05/05 03:40:35;;;;;;;5.97;4.95;;;;;;;;;;4994402;28;20672;-57
2021/05/05 03:43:01;;;;;;;5.60;5.10;;;;;;;;;;4994192;28;20246;-57
2021/05/05 03:45:28;;;;;;;6.25;5.65;;;;;;;;;;4994642;28;20215;-56
2021/05/05 03:47:55;;;;;;;8.30;5.70;;;;;;;;;;4994403;28;20208;-56
2021/05/05 03:50:22;;;;;;;6.47;5.70;;;;;;;;;;4994327;28;20204;-56
2021/05/05 03:52:49;;;;;;;5.72;5.22;;;;;;;;;;4994275;28;20224;-56
2021/05/05 03:55:16;;;;;;;5.50;4.47;;;;;;;;;;4994076;28;20204;-57
2021/05/05 03:57:44;;;;;;;8.13;4.70;;;;;;;;;;4994056;28;20207;-57
2021/05/05 04:00:11;;;;;;;7.07;3.80;;;;;;;;;;4994372;28;20204;-54
2021/05/05 04:02:38;;;;;;;7.40;4.03;;;;;;;;;;4994172;28;20227;-56
2021/05/05 04:08:04;;;;;;;8.38;4.50;;;;;;;;;;5112278;27;21125;-55
2021/05/05 04:10:30;;;;;;;4.50;4.07;;;;;;;;;;5111704;28;20203;-57
2021/05/05 04:12:57;;;;;;;7.10;4.03;;;;;;;;;;5111340;28;20219;-56
2021/05/05 04:15:24;;;;;;;6.45;5.20;;;;;;;;;;5111656;28;20210;-55
2021/05/05 04:17:51;;;;;;;4.22;3.83;;;;;;;;;;5111402;28;20221;-56
2021/05/05 04:20:19;;;;;;;4.63;4.22;;;;;;;;;;5111419;28;20209;-57
2021/05/05 04:22:46;;;;;;;4.97;4.47;;;;;;;;;;5111288;28;20220;-57
2021/05/05 04:25:14;;;;;;;4.40;3.72;;;;;;;;;;5111971;28;20196;-57
2021/05/05 04:27:42;;;;;;;5.05;3.95;;;;;;;;;;5110709;28;20278;-57
2021/05/05 04:30:10;;;;;;;4.15;3.75;;;;;;;;;;5111214;28;20200;-57
2021/05/05 04:32:36;;;;;;;4.15;3.72;;;;;;;;;;5111222;28;20211;-57
2021/05/05 04:35:04;;;;;;;4.18;3.30;;;;;;;;;;5111120;28;20211;-57
2021/05/05 04:37:30;;;;;;;5.63;3.42;;;;;;;;;;5111306;28;20203;-57
2021/05/05 04:39:57;;;;;;;7.38;4.40;;;;;;;;;;5110975;28;20200;-57
2021/05/05 04:42:25;;;;;;;3.83;3.42;;;;;;;;;;5110875;28;20208;-57
2021/05/05 04:44:51;;;;;;;5.47;3.50;;;;;;;;;;5111037;28;20200;-57
2021/05/05 04:47:18;;;;;;;4.57;3.28;;;;;;;;;;5110877;28;20261;-57
2021/05/05 04:49:45;;;;;;;5.43;4.05;;;;;;;;;;5110756;28;20197;-57
2021/05/05 04:52:12;;;;;;;6.30;4.13;;;;;;;;;;5110701;28;20204;-57
2021/05/05 04:54:38;;;;;;;5.68;4.55;;;;;;;;;;5110746;28;20220;-57
2021/05/05 04:57:05;;;;;;;4.55;4.15;;;;;;;;;;5110220;28;20672;-57
2021/05/05 04:59:33;;;;;;;5.15;4.38;;;;;;;;;;5110724;28;20196;-56
2021/05/05 05:02:00;;;;;;;5.88;4.80;;;;;;;;;;5110053;28;20667;-58
2021/05/05 05:04:26;;;;;;;5.38;4.75;;;;;;;;;;5110360;28;20227;-55
2021/05/05 05:06:53;;;;;;;4.70;4.10;;;;;;;;;;5109717;28;20220;-56
2021/05/05 05:09:20;;;;;;;8.13;4.82;;;;;;;;;;5109797;28;20204;-55
2021/05/05 05:11:47;;;;;;;7.85;4.60;;;;;;;;;;5109786;28;20213;-56
2021/05/05 05:14:14;;;;;;;5.90;3.67;;;;;;;;;;5109613;28;20779;-55
2021/05/05 05:16:42;;;;;;;5.20;4.45;;;;;;;;;;5110163;28;20197;-56
2021/05/05 05:19:08;;;;;;;3.35;3.03;;;;;;;;;;5097833;28;20680;-56
2021/05/05 05:21:36;;;;;;;4.13;3.00;;;;;;;;;;5096036;28;20209;-56
2021/05/05 05:24:03;;;;;;;5.20;3.33;;;;;;;;;;5096263;28;20629;-57
2021/05/05 05:26:29;;;;;;;4.80;3.70;;;;;;;;;;5096592;28;20220;-56
2021/05/05 05:28:56;;;;;;;4.80;3.40;;;;;;;;;;5096365;28;20279;-56
2021/05/05 05:31:23;;;;;;;3.97;3.53;;;;;;;;;;5095987;28;20205;-56
2021/05/05 05:33:51;;;;;;;4.80;4.18;;;;;;;;;;5096130;28;20221;-56
2021/05/05 05:36:17;;;;;;;5.00;3.25;;;;;;;;;;5095969;28;20204;-56
2021/05/05 05:38:44;;;;;;;4.65;3.20;;;;;;;;;;5096251;28;20200;-56
2021/05/05 05:41:11;;;;;;;5.15;3.20;;;;;;;;;;5095652;28;20544;-56
2021/05/05 05:43:37;;;;;;;3.75;3.00;;;;;;;;;;5094908;28;20711;-56
2021/05/05 05:46:04;;;;;;;8.00;3.15;;;;;;;;;;5095751;28;20289;-57
2021/05/05 05:48:31;;;;;;;6.40;2.80;;;;;;;;;;5095741;28;20203;-57
2021/05/05 05:50:59;;;;;;;5.00;2.90;;;;;;;;;;5095831;28;20227;-58
2021/05/05 05:53:26;;;;;;;4.63;2.35;;;;;;;;;;5095304;28;20231;-55
2021/05/05 05:55:53;;;;;;;3.92;2.90;;;;;;;;;;5095797;28;20207;-56
2021/05/05 05:58:19;;;;;;;7.45;2.80;;;;;;;;;;5095608;28;20201;-57
2021/05/05 06:00:46;;;;;;;4.88;2.50;;;;;;;;;;5095641;28;20205;-56
2021/05/05 06:03:13;;;;;;;3.03;2.72;;;;;;;;;;5095966;28;20220;-57
2021/05/05 06:05:40;;;;;;;3.47;2.60;;;;;;;;;;5095123;28;20573;-57
2021/05/05 06:08:07;;;;;;;3.00;2.42;;;;;;;;;;5094894;28;20204;-57
2021/05/05 06:10:34;;;;;;;3.83;2.30;;;;;;;;;;5095222;28;20203;-55
2021/05/05 06:13:01;;;;;;;5.55;2.15;;;;;;;;;;5095009;28;20220;-58
2021/05/05 06:15:28;;;;;;;3.38;2.50;;;;;;;;;;5095164;28;20201;-56
2021/05/05 06:17:54;;;;;;;4.63;2.40;;;;;;;;;;5096216;28;20197;-56
2021/05/05 06:20:21;;;;;;;5.32;3.08;;;;;;;;;;5095002;28;20200;-57
2021/05/05 06:22:48;;;;;;;5.35;3.20;;;;;;;;;;5094330;28;20567;-57
2021/05/05 06:25:16;;;;;;;4.07;3.20;;;;;;;;;;5094652;28;20667;-57
2021/05/05 06:27:42;;;;;;;8.25;2.75;;;;;;;;;;5094716;28;20559;-56
2021/05/05 06:30:10;;;;;;;6.13;3.15;;;;;;;;;;5093532;28;20200;-56
2021/05/05 06:32:38;;;;;;;3.45;2.25;;;;;;;;;;5094336;28;20224;-55
2021/05/05 06:35:05;;;;;;;4.28;2.88;;;;;;;;;;5094679;28;20270;-56
2021/05/05 06:37:32;;;;;;;5.13;3.40;;;;;;;;;;5094578;28;20241;-56
2021/05/05 06:40:00;;;;;;;4.10;2.40;;;;;;;;;;5094486;28;20200;-55
2021/05/05 06:42:28;;;;;;;5.40;3.15;;;;;;;;;;5094222;28;20682;-57
2021/05/05 06:44:55;;;;;;;5.20;2.40;;;;;;;;;;5093509;28;20444;-57
2021/05/05 06:47:22;;;;;;;7.82;3.10;;;;;;;;;;5094514;28;20212;-56
2021/05/05 06:49:48;;;;;;;4.13;2.67;;;;;;;;;;5094216;28;20200;-56
2021/05/05 06:52:15;;;;;;;4.47;1.90;;;;;;;;;;5094038;28;20672;-56
2021/05/05 06:54:42;;;;;;;4.28;2.30;;;;;;;;;;5094287;28;20249;-55
2021/05/05 06:57:09;;;;;;;5.57;2.42;;;;;;;;;;5094047;28;20211;-55
2021/05/05 06:59:36;;;;;;;6.80;2.30;;;;;;;;;;5094016;28;20205;-56
2021/05/05 07:02:03;;;;;;;4.35;2.33;;;;;;;;;;5094028;28;20664;-55
2021/05/05 07:04:30;;;;;;;5.10;2.20;;;;;;;;;;5093877;28;20632;-56
2021/05/05 07:06:57;;;;;;;3.08;2.05;;;;;;;;;;5093698;28;20223;-55
2021/05/05 07:09:24;;;;;;;3.13;2.13;;;;;;;;;;5093886;28;20204;-56
2021/05/05 07:11:50;;;;;;;8.50;2.45;;;;;;;;;;5094201;28;20203;-56
2021/05/05 07:14:17;;;;;;;6.53;2.50;;;;;;;;;;5093626;28;20707;-56
2021/05/05 07:16:45;;;;;;;8.20;2.22;;;;;;;;;;5093818;28;20196;-56
2021/05/05 07:19:12;;;;;;;6.03;2.33;;;;;;;;;;5094068;28;20542;-56
2021/05/05 07:21:39;;;;;;;3.78;2.00;;;;;;;;;;5093778;28;20204;-55
2021/05/05 07:24:06;;;;;;;4.13;2.35;;;;;;;;;;5093851;28;20240;-56
2021/05/05 07:26:33;;;;;;;7.18;2.22;;;;;;;;;;5093608;28;20639;-55
2021/05/05 07:29:00;;;;;;;3.28;1.60;;;;;;;;;;5093945;28;20211;-55
2021/05/05 07:31:27;;;;;;;6.63;2.00;;;;;;;;;;5093814;28;20261;-56
2021/05/05 07:33:56;;;;;;;6.88;2.00;;;;;;;;;;5093904;28;20223;-56
2021/05/05 07:36:26;;;;;;;8.27;2.25;;;;;;;;;;5093523;28;20223;-57
2021/05/05 07:39:23;;;;;;;7.60;2.30;;;;;;;;;;5093126;28;20743;-58
2021/05/05 07:47:36;;;;;;;9.43;2.43;;;;;;;;;;4972528;28;20201;-63
2021/05/05 07:50:05;;;;;;;7.38;2.05;;;;;;;;;;4973200;28;20506;-64
2021/05/05 07:52:32;;;;;;;5.32;1.90;;;;;;;;;;5001292;28;20578;-64
2021/05/05 07:55:01;;;;;;;7.85;2.70;;;;;;;;;;5034141;28;20219;-63
2021/05/05 07:57:27;;;;;;;5.30;2.33;;;;;;;;;;5035285;28;20221;-62
2021/05/05 07:59:54;;;;;;;5.28;1.92;;;;;;;;;;5036008;28;20445;-63
2021/05/05 08:02:21;;;;;;;5.60;1.83;;;;;;;;;;5035198;28;20233;-63
2021/05/05 08:04:51;;;;;;;6.50;2.05;;;;;;;;;;5036025;28;20229;-63
2021/05/05 08:07:19;;;;;;;3.75;2.13;;;;;;;;;;5034758;28;20693;-65
2021/05/05 08:09:46;;;;;;;2.07;1.50;;;;;;;;;;5036382;28;20202;-65
2021/05/05 08:12:13;;;;;;;5.43;1.75;;;;;;;;;;5034705;28;20462;-66
2021/05/05 08:14:40;;;;;;;4.07;1.70;;;;;;;;;;5033005;28;20237;-65
2021/05/05 08:17:07;;;;;;;5.57;2.33;;;;;;;;;;5033558;28;20843;-66
2021/05/05 08:19:34;;;;;;;5.17;2.13;;;;;;;;;;5033681;28;20551;-65
2021/05/05 08:22:01;;;;;;;3.95;2.03;;;;;;;;;;5032820;28;21003;-66
2021/05/05 08:24:28;;;;;;;5.00;1.93;;;;;;;;;;5034050;28;20245;-63
2021/05/05 08:26:55;;;;;;;6.73;2.07;;;;;;;;;;5033242;28;20508;-66
2021/05/05 08:29:22;;;;;;;2.83;1.50;;;;;;;;;;5033329;28;20511;-65
2021/05/05 08:31:49;;;;;;;4.90;1.63;;;;;;;;;;5032698;28;20490;-65
2021/05/05 08:34:16;;;;;;;4.13;2.10;;;;;;;;;;5033367;28;20536;-65
2021/05/05 08:36:43;;;;;;;6.47;2.03;;;;;;;;;;5033062;28;20862;-67
2021/05/05 08:39:09;;;;;;;4.37;1.90;;;;;;;;;;5033039;28;20498;-65
2021/05/05 08:41:39;;;;;;;2.87;1.83;;;;;;;;;;5033248;28;20503;-65
2021/05/05 08:44:10;;;;;;;5.57;2.00;;;;;;;;;;5032708;28;20481;-65
2021/05/05 08:46:38;;;;;;;4.30;1.73;;;;;;;;;;5032978;28;20573;-65
2021/05/05 08:49:05;;;;;;;5.97;1.93;;;;;;;;;;5033284;28;20531;-64
2021/05/05 08:51:32;;;;;;;4.77;2.00;;;;;;;;;;5032906;28;20444;-66
2021/05/05 08:53:59;;;;;;;4.17;1.93;;;;;;;;;;5035128;28;20468;-64
2021/05/05 08:56:25;;;;;;;3.70;1.70;;;;;;;;;;5036238;28;20441;-66
2021/05/05 08:58:53;;;;;;;7.07;1.90;;;;;;;;;;5038135;28;20445;-65
2021/05/05 09:01:20;;;;;;;8.00;2.17;;;;;;;;;;5037573;28;20472;-64
2021/05/05 09:03:46;;;;;;;3.63;2.30;;;;;;;;;;5036756;28;20492;-64
2021/05/05 09:06:15;;;;;;;5.37;1.90;;;;;;;;;;5036473;28;20523;-65
2021/05/05 09:08:48;;;;;;;4.67;2.00;;;;;;;;;;5036331;28;20503;-65
2021/05/05 09:11:15;;;;;;;5.43;2.30;;;;;;;;;;5036119;28;20438;-64
2021/05/05 09:13:50;;;;;;;4.43;1.80;;;;;;;;;;5035636;28;21034;-65
2021/05/05 09:16:19;;;;;;;2.77;1.80;;;;;;;;;;5035817;28;20449;-65
2021/05/05 09:18:59;;;;;;;3.27;1.97;;;;;;;;;;5035813;28;20448;-65
2021/05/05 09:21:27;;;;;;;5.60;2.00;;;;;;;;;;5035656;28;20433;-63
2021/05/05 09:24:13;;;;;;;3.07;1.90;;;;;;;;;;5035416;28;20465;-65
2021/05/05 09:26:40;;;;;;;5.00;2.07;;;;;;;;;;5035967;28;20466;-65
2021/05/05 09:29:07;;;;;;;5.60;2.10;;;;;;;;;;5035770;28;20449;-65
2021/05/05 09:31:35;;;;;;;7.33;1.83;;;;;;;;;;5039319;28;20439;-64
2021/05/05 09:34:02;;;;;;;4.53;1.63;;;;;;;;;;5052842;28;20801;-65
2021/05/05 09:36:29;;;;;;;4.53;1.63;;;;;;;;;;5052251;28;20441;-65
2021/05/05 09:38:56;;;;;;;3.87;1.83;;;;;;;;;;5050556;28;20445;-64
2021/05/05 09:41:24;;;;;;;8.40;2.27;;;;;;;;;;5045778;28;20446;-65
2021/05/05 09:43:52;;;;;;;2.73;1.60;;;;;;;;;;5042922;28;20481;-66
2021/05/05 09:46:32;;;;;;;2.77;1.80;;;;;;;;;;5036794;28;20446;-65
2021/05/05 09:49:14;;;;;;;3.70;1.90;;;;;;;;;;5036427;28;20938;-65
2021/05/05 09:51:48;;;;;;;3.10;1.97;;;;;;;;;;5036633;28;20460;-66
2021/05/05 09:54:23;;;;;;;7.03;2.47;;;;;;;;;;5035995;28;20465;-65
2021/05/05 09:56:50;;;;;;;6.53;2.83;;;;;;;;;;5035947;28;20440;-65
2021/05/05 09:59:17;;;;;;;5.50;2.00;;;;;;;;;;5035508;28;20437;-65
2021/05/05 10:01:58;;;;;;;4.53;2.50;;;;;;;;;;5036371;28;20441;-65
2021/05/05 10:04:25;;;;;;;2.20;1.77;;;;;;;;;;5040320;28;20468;-63
2021/05/05 10:06:58;;;;;;;7.97;2.50;;;;;;;;;;5040402;28;21035;-65
2021/05/05 10:09:25;;;;;;;6.40;2.70;;;;;;;;;;5040321;28;20853;-63
2021/05/05 10:11:52;;;;;;;6.03;2.60;;;;;;;;;;5037967;28;20512;-65
2021/05/05 10:14:20;;;;;;;3.20;2.33;;;;;;;;;;5035745;28;20465;-65
2021/05/05 10:16:48;;;;;;;6.40;1.47;;;;;;;;;;5035838;28;20809;-64
2021/05/05 10:19:16;;;;;;;2.87;1.60;;;;;;;;;;5034813;28;20449;-63
2021/05/05 10:21:45;;;;;;;3.63;1.90;;;;;;;;;;5035514;28;20437;-64
2021/05/05 10:24:13;;;;;;;5.90;2.07;;;;;;;;;;5034841;28;20528;-65
2021/05/05 10:26:42;;;;;;;4.73;1.83;;;;;;;;;;5034884;28;20481;-65
2021/05/05 10:29:09;;;;;;;5.70;2.00;;;;;;;;;;5034938;28;20464;-64
2021/05/05 10:31:36;;;;;;;3.80;2.27;;;;;;;;;;5034842;28;20759;-65
2021/05/05 10:34:10;;;;;;;2.73;1.80;;;;;;;;;;5035046;28;20978;-65
2021/05/05 10:36:38;;;;;;;2.63;1.70;;;;;;;;;;5035050;28;20440;-64
2021/05/05 10:39:29;;;;;;;5.73;1.80;;;;;;;;;;5034239;28;20943;-65
2021/05/05 10:42:15;;;;;;;4.07;1.70;;;;;;;;;;5034557;28;20426;-66
2021/05/05 10:44:43;;;;;;;3.97;2.00;;;;;;;;;;5034040;28;20486;-66
2021/05/05 10:47:23;;;;;;;4.13;2.30;;;;;;;;;;5033873;28;20486;-64
2021/05/05 10:50:05;;;;;;;6.90;1.77;;;;;;;;;;5034262;28;20453;-66
2021/05/05 10:52:55;;;;;;;2.67;1.60;;;;;;;;;;5034238;28;20430;-65
2021/05/05 10:55:31;;;;;;;5.87;2.03;;;;;;;;;;5033940;28;20548;-65
2021/05/05 10:58:05;;;;;;;7.00;2.20;;;;;;;;;;5034113;28;20432;-65
2021/05/05 11:00:43;;;;;;;3.83;1.80;;;;;;;;;;5034701;28;20530;-65
2021/05/05 11:03:10;;;;;;;2.53;1.37;;;;;;;;;;5034519;28;20520;-65
2021/05/05 11:05:38;;;;;;;3.57;1.93;;;;;;;;;;5033918;28;20458;-64
2021/05/05 11:08:05;;;;;;;2.40;1.97;;;;;;;;;;5033262;28;20483;-64
2021/05/05 11:10:48;;;;;;;1.60;1.50;;;;;;;;;;5033657;28;20547;-66
2021/05/05 11:13:48;;;;;;;2.87;1.77;;;;;;;;;;5033771;28;20467;-63
2021/05/05 11:16:16;;;;;;;3.75;2.00;;;;;;;;;;4971266;28;20842;-65
2021/05/05 11:18:46;;;;;;;2.63;1.90;;;;;;;;;;4972870;28;20207;-65
2021/05/05 11:21:32;;;;;;;2.73;2.00;;;;;;;;;;5002351;28;20817;-65
2021/05/05 11:23:59;;;;;;;5.80;1.80;;;;;;;;;;5034099;28;20499;-65
2021/05/05 11:26:27;;;;;;;3.00;1.90;;;;;;;;;;5033816;28;20484;-63
2021/05/05 11:28:56;;;;;;;2.83;2.00;;;;;;;;;;5033829;28;20943;-63
2021/05/05 11:31:44;;;;;;;2.83;1.90;;;;;;;;;;5034001;28;20444;-64
2021/05/05 11:34:11;;;;;;;1.60;1.43;;;;;;;;;;5033394;28;20475;-65
2021/05/05 11:36:38;;;;;;;4.07;1.60;;;;;;;;;;5033506;28;20498;-64
2021/05/05 11:39:05;;;;;;;2.00;1.20;;;;;;;;;;5034002;28;20434;-64
2021/05/05 11:41:32;;;;;;;2.60;1.27;;;;;;;;;;5033810;28;20445;-65
2021/05/05 11:43:59;;;;;;;2.10;1.43;;;;;;;;;;5033204;28;20484;-65
2021/05/05 11:46:27;;;;;;;2.90;1.60;;;;;;;;;;5033213;28;20537;-63
2021/05/05 11:48:54;;;;;;;3.43;1.30;;;;;;;;;;5033772;28;20448;-65
2021/05/05 11:51:25;;;;;;;4.77;1.50;;;;;;;;;;5033480;28;20487;-64
2021/05/05 11:53:52;;;;;;;4.40;1.57;;;;;;;;;;5033426;28;20461;-66
2021/05/05 11:56:23;;;;;;;4.10;2.27;;;;;;;;;;5033449;28;20449;-64
2021/05/05 11:58:53;;;;;;;4.60;2.07;;;;;;;;;;5034296;28;20455;-66
2021/05/05 12:01:34;;;;;;;3.87;1.40;;;;;;;;;;5034713;28;20962;-65
2021/05/05 12:04:18;;;;;;;3.40;1.43;;;;;;;;;;5041207;28;20454;-65
2021/05/05 12:07:03;;;;;;;3.40;1.30;;;;;;;;;;5036300;28;20476;-64
2021/05/05 12:09:31;;;;;;;2.93;1.40;;;;;;;;;;5034672;28;20430;-63
2021/05/05 12:12:15;;;;;;;2.57;0.90;;;;;;;;;;5033788;28;20437;-64
2021/05/05 12:14:45;;;;;;;1.60;0.93;;;;;;;;;;5032995;28;20981;-64
2021/05/05 12:17:18;;;;;;;1.50;1.10;;;;;;;;;;5033041;28;20444;-64
2021/05/05 12:19:55;;;;;;;2.27;1.07;;;;;;;;;;5033297;28;20425;-65
2021/05/05 12:22:22;;;;;;;1.07;0.90;;;;;;;;;;5033443;28;20787;-65
2021/05/05 12:25:05;;;;;;;2.77;1.27;;;;;;;;;;5032962;28;20465;-65
2021/05/05 12:27:31;;;;;;;2.10;0.97;;;;;;;;;;5033018;28;20482;-65
2021/05/05 12:29:59;;;;;;;2.53;0.90;;;;;;;;;;5037138;28;20452;-65
2021/05/05 12:32:40;;;;;;;3.47;1.70;;;;;;;;;;5036872;28;20460;-65
2021/05/05 12:35:09;;;;;;;3.40;2.03;;;;;;;;;;5036932;28;20442;-64
2021/05/05 12:37:36;;;;;;;3.13;1.73;;;;;;;;;;5036813;28;20462;-64
2021/05/05 12:40:04;;;;;;;2.30;1.10;;;;;;;;;;5037199;28;20809;-64
2021/05/05 12:42:33;;;;;;;2.03;1.47;;;;;;;;;;5036701;28;20460;-64
2021/05/05 12:45:04;;;;;;;3.50;1.67;;;;;;;;;;5036555;28;20563;-66
2021/05/05 12:47:32;;;;;;;4.10;1.10;;;;;;;;;;5036909;28;20466;-64
2021/05/05 12:49:59;;;;;;;1.63;1.10;;;;;;;;;;5037066;28;20543;-63
2021/05/05 12:52:28;;;;;;;1.50;1.20;;;;;;;;;;5036701;28;20479;-64
2021/05/05 12:54:56;;;;;;;3.30;1.20;;;;;;;;;;5036425;28;20482;-63
2021/05/05 12:57:23;;;;;;;2.60;1.80;;;;;;;;;;5036734;28;20450;-63
2021/05/05 12:59:52;;;;;;;3.20;1.30;;;;;;;;;;5036323;28;20435;-63
2021/05/05 13:02:21;;;;;;;2.80;1.30;;;;;;;;;;5037338;28;20517;-63
2021/05/05 13:04:48;;;;;;;2.10;1.47;;;;;;;;;;5036384;28;20475;-63
2021/05/05 13:07:30;;;;;;;4.80;1.40;;;;;;;;;;5036323;28;20484;-63
2021/05/05 13:10:10;;;;;;;4.33;1.40;;;;;;;;;;5034551;28;20454;-64
2021/05/05 13:12:41;;;;;;;3.00;1.27;;;;;;;;;;5037030;28;20470;-59
2021/05/05 13:15:29;;;;;;;2.43;1.43;;;;;;;;;;5036177;28;20442;-64
2021/05/05 13:18:21;;;;;;;5.33;1.43;;;;;;;;;;5036467;28;20420;-62
2021/05/05 13:31:57;;;;;;;3.13;1.07;;;;;;;;;;5036266;28;20769;-62
2021/05/05 13:34:29;;;;;;;3.35;1.42;;;;;;;;;;5036317;28;20968;-63
2021/05/05 13:36:57;;;;;;;3.15;1.42;;;;;;;;;;5035712;28;20218;-61
2021/05/05 13:39:27;;;;;;;5.03;1.45;;;;;;;;;;5035636;28;20210;-62
2021/05/05 13:41:55;;;;;;;4.45;1.30;;;;;;;;;;5035761;28;20206;-60
2021/05/05 13:44:27;;;;;;;5.88;1.60;;;;;;;;;;5035781;28;20287;-63
2021/05/05 13:47:07;;;;;;;3.60;1.50;;;;;;;;;;5035592;28;20223;-62
2021/05/05 13:49:36;;;;;;;2.37;1.20;;;;;;;;;;5035756;28;20490;-64
2021/05/05 13:52:04;;;;;;;4.50;1.50;;;;;;;;;;5035697;28;20449;-64
2021/05/05 13:54:32;;;;;;;4.20;1.37;;;;;;;;;;5035157;28;20789;-63
2021/05/05 13:57:02;;;;;;;2.53;1.30;;;;;;;;;;5035173;28;20450;-63
2021/05/05 13:59:29;;;;;;;3.30;1.10;;;;;;;;;;5035554;28;20430;-64
2021/05/05 14:01:56;;;;;;;2.63;1.47;;;;;;;;;;5034993;28;20449;-62
2021/05/05 14:04:22;;;;;;;1.20;0.90;;;;;;;;;;5035266;28;20531;-63
2021/05/05 14:06:50;;;;;;;3.07;1.37;;;;;;;;;;5035289;28;20449;-63
2021/05/05 14:09:17;;;;;;;3.17;1.60;;;;;;;;;;5035495;28;20502;-63
2021/05/05 14:11:44;;;;;;;4.00;1.60;;;;;;;;;;5035244;28;20451;-63
2021/05/05 14:14:11;;;;;;;6.27;1.47;;;;;;;;;;5035061;28;20458;-61
2021/05/05 14:16:38;;;;;;;4.50;1.60;;;;;;;;;;5035194;28;20499;-62
2021/05/05 14:19:05;;;;;;;4.37;1.50;;;;;;;;;;5035295;28;20445;-63
2021/05/05 14:21:31;;;;;;;2.57;1.20;;;;;;;;;;5035361;28;20441;-61
2021/05/05 14:23:58;;;;;;;5.47;1.63;;;;;;;;;;5034610;28;20511;-62
2021/05/05 14:26:25;;;;;;;5.90;1.70;;;;;;;;;;5034711;28;20437;-63
2021/05/05 14:28:53;;;;;;;3.33;1.50;;;;;;;;;;5035330;28;20481;-63
2021/05/05 14:31:20;;;;;;;5.60;1.40;;;;;;;;;;5035414;28;20456;-64
2021/05/05 14:33:47;;;;;;;3.77;1.47;;;;;;;;;;5035100;28;20522;-63
2021/05/05 14:36:13;;;;;;;2.70;1.37;;;;;;;;;;5034989;28;20446;-61
2021/05/05 14:38:42;;;;;;;5.63;1.60;;;;;;;;;;5034791;28;20454;-62
2021/05/05 14:41:12;;;;;;;2.93;1.40;;;;;;;;;;5034435;28;20449;-61
2021/05/05 14:43:47;;;;;;;4.53;1.40;;;;;;;;;;5034264;28;20509;-63
2021/05/05 14:48:56;;;;;;;6.57;1.90;;;;;;;;;;5033297;28;20482;-63
2021/05/05 14:51:22;;;;;;;7.77;2.07;;;;;;;;;;5033415;28;20820;-62
2021/05/05 14:53:49;;;;;;;3.07;1.20;;;;;;;;;;5067585;22;21004;-57
2021/05/05 14:56:16;;;;;;;4.60;1.77;;;;;;;;;;5040500;28;20473;-57
2021/05/05 14:58:45;;;;;;;6.53;2.30;;;;;;;;;;5039043;28;20445;-59
2021/05/05 15:01:12;;;;;;;7.20;2.10;;;;;;;;;;5034182;28;20440;-58
2021/05/05 15:03:40;;;;;;;9.03;2.17;;;;;;;;;;5037485;28;20457;-59
2021/05/05 15:06:10;;;;;;;6.75;2.45;;;;;;;;;;5035877;28;20933;-58
2021/05/05 15:08:43;;;;;;;5.05;1.90;;;;;;;;;;5033691;28;20206;-60
2021/05/05 15:11:40;;;;;;;7.22;2.55;;;;;;;;;;5034782;28;20555;-58
2021/05/05 15:14:09;;;;;;;4.32;1.83;;;;;;;;;;5035018;28;20233;-56
2021/05/05 15:28:06;;;;;;;4.43;1.85;;;;;;;;;;5033708;28;20452;-59